クライストチャーチ の空港の天気 - METARとTAF

クライストチャーチ国際空港 ( NZCH / CHC ) - ニュージーランド クライストチャーチ
飛行場実況気象(Metar)
観測時間12/01 09:00 NZDT (11/30 20:00 UTC)
風向・風速西南西 4m/s
視程10km以上
天気現象
少しの雲 雲底高度 1250m
全天の8割程度の雲 雲底高度 1680m
気温11℃
湿度82%
気圧1017hPa
METARNZCH 302000Z AUTO 24007KT 9999 FEW041/// BKN055/// 11/08 Q1017 NOSIG
過去の天気等 Google飛行場航空写真 Wunderground天気予報

過去48時間のMETAR

飛行場予報(TAF)
発表時間: 12/01 06:01 NZDT (11/30 17:01 UTC)
予報対象時間: 1日7時 NZDT ~ 2日7時 NZDT
風向・風速西南西 5m/s
視程10km以上
全天の8割程度の雲 雲底高度 1220m
1日12時 NZDT ~ 1日14時 NZDT に徐々に
風向・風速不定 1m/s
1日16時 NZDT ~ 1日18時 NZDT に徐々に
風向・風速東北東 5m/s
TAF NZCH 301701Z 3018/0118 24010KT 9999 BKN040
BECMG 3023/0101 VRB02KT
BECMG 0103/0105 06010KT